Time,TemperatureF,DewpointF,PressureIn,WindDirection,WindDirectionDegrees,WindSpeedMPH,WindSpeedGustMPH,Humidity,HourlyPrecipIn,Conditions,Clouds,dailyrainin,SoftwareType,DateUTC
2013-05-24 17:47:00,64.0,40.3,30.11,East,90,2.0,2.0,42,0.00,,,0.00,WUHU216HW,2013-05-24 22:47:00,
2013-05-24 17:48:00,63.6,40.0,30.11,ESE,113,5.5,5.5,42,0.00,,,0.00,WUHU216HW,2013-05-24 22:48:00,
2013-05-24 17:53:00,63.3,39.1,30.11,East,90,0.2,5.5,41,0.00,,,0.00,WUHU216HW,2013-05-24 22:53:00,
2013-05-24 17:58:00,63.3,39.0,30.11,East,90,6.1,7.6,41,0.00,,,0.00,WUHU216HW,2013-05-24 22:58:00,
2013-05-24 18:03:00,67.8,41.2,30.12,East,90,2.2,7.6,38,0.00,,,0.00,WUHU216HW,2013-05-24 23:03:00,
2013-05-24 18:09:00,71.9,42.9,30.11,East,90,1.5,7.3,35,0.00,,,0.00,WUHU216HW,2013-05-24 23:09:00,
2013-05-24 18:14:00,76.6,44.5,30.11,East,90,2.1,3.1,32,0.00,,,0.00,WUHU216HW,2013-05-24 23:14:00,
2013-05-24 18:19:00,79.5,45.4,30.11,ESE,113,3.5,3.5,30,0.00,,,0.00,WUHU216HW,2013-05-24 23:19:00,
2013-05-24 18:24:00,81.1,43.7,30.11,ENE,68,0.0,3.5,27,0.00,,,0.00,WUHU216HW,2013-05-24 23:24:00,
2013-05-24 18:29:00,81.5,43.9,30.11,ESE,113,0.0,0.0,27,0.00,,,0.00,WUHU216HW,2013-05-24 23:29:00,
2013-05-24 18:34:00,78.6,42.5,30.11,East,90,0.0,4.4,28,0.00,,,0.00,WUHU216HW,2013-05-24 23:34:00,
2013-05-24 18:39:00,75.0,40.5,30.11,ENE,68,0.6,4.4,29,0.00,,,0.00,WUHU216HW,2013-05-24 23:39:00,
2013-05-24 18:44:00,70.7,39.3,30.11,East,90,2.2,2.4,32,0.00,,,0.00,WUHU216HW,2013-05-24 23:44:00,
2013-05-24 18:49:00,67.8,38.2,30.12,East,90,1.1,2.4,34,0.00,,,0.00,WUHU216HW,2013-05-24 23:49:00,
2013-05-24 18:54:00,66.0,36.6,30.12,ENE,68,0.0,1.1,34,0.00,,,0.00,WUHU216HW,2013-05-24 23:54:00,
2013-05-24 18:59:00,63.6,36.7,30.13,East,90,0.0,0.0,37,0.00,,,0.00,WUHU216HW,2013-05-24 23:59:00,
2013-05-24 19:04:00,62.2,36.8,30.13,East,90,0.0,0.0,39,0.00,,,0.00,WUHU216HW,2013-05-25 00:04:00,
2013-05-24 19:09:00,62.6,36.6,30.13,East,90,0.0,0.0,38,0.00,,,0.00,WUHU216HW,2013-05-25 00:09:00,
2013-05-24 19:14:00,61.3,36.0,30.13,East,90,0.0,0.0,39,0.00,,,0.00,WUHU216HW,2013-05-25 00:14:00,
2013-05-24 19:19:00,59.7,35.3,30.13,ENE,68,0.0,0.0,40,0.00,,,0.00,WUHU216HW,2013-05-25 00:19:00,
2013-05-24 19:24:00,58.6,35.5,30.13,ENE,68,0.0,0.0,42,0.00,,,0.00,WUHU216HW,2013-05-25 00:24:00,
2013-05-24 19:29:00,57.3,35.5,30.14,ENE,68,0.0,0.0,44,0.00,,,0.00,WUHU216HW,2013-05-25 00:29:00,
2013-05-24 19:34:00,56.3,35.0,30.12,ENE,68,0.0,0.0,45,0.00,,,0.00,WUHU216HW,2013-05-25 00:34:00,
2013-05-24 19:39:00,55.5,34.4,30.12,ENE,68,0.0,0.0,45,0.00,,,0.00,WUHU216HW,2013-05-25 00:39:00,
2013-05-24 19:45:00,54.8,34.3,30.13,ENE,68,0.0,0.0,46,0.00,,,0.00,WUHU216HW,2013-05-25 00:45:00,
2013-05-24 19:50:00,54.3,34.3,30.13,ENE,68,0.0,0.0,47,0.00,,,0.00,WUHU216HW,2013-05-25 00:50:00,
2013-05-24 19:55:00,53.7,34.4,30.13,ENE,68,0.0,0.0,48,0.00,,,0.00,WUHU216HW,2013-05-25 00:55:00,
2013-05-24 20:00:00,53.2,34.5,30.13,NE,45,0.0,0.0,49,0.00,,,0.00,WUHU216HW,2013-05-25 01:00:00,
2013-05-24 20:05:00,52.8,34.7,30.13,NE,45,0.0,0.0,50,0.00,,,0.00,WUHU216HW,2013-05-25 01:05:00,
2013-05-24 20:10:00,52.1,34.8,30.14,NE,45,0.0,0.0,52,0.00,,,0.00,WUHU216HW,2013-05-25 01:10:00,
2013-05-24 20:15:00,51.6,34.9,30.14,NE,45,0.0,0.0,53,0.00,,,0.00,WUHU216HW,2013-05-25 01:15:00,
2013-05-24 20:20:00,51.0,34.9,30.14,NE,45,0.0,0.0,54,0.00,,,0.00,WUHU216HW,2013-05-25 01:20:00,
2013-05-24 20:25:00,50.7,35.0,30.13,NE,45,0.0,0.0,55,0.00,,,0.00,WUHU216HW,2013-05-25 01:25:00,
2013-05-24 20:30:00,50.5,35.3,30.13,NE,45,0.0,0.0,56,0.00,,,0.00,WUHU216HW,2013-05-25 01:30:00,
2013-05-24 20:36:00,50.1,35.9,30.14,NE,45,0.0,0.0,58,0.00,,,0.00,WUHU216HW,2013-05-25 01:36:00,
2013-05-24 20:41:00,49.8,35.6,30.14,NE,45,0.0,0.0,58,0.00,,,0.00,WUHU216HW,2013-05-25 01:41:00,
2013-05-24 20:46:00,49.6,35.8,30.14,NE,45,0.0,0.0,59,0.00,,,0.00,WUHU216HW,2013-05-25 01:46:00,
2013-05-24 20:51:00,49.2,36.0,30.14,NE,45,0.0,0.0,60,0.00,,,0.00,WUHU216HW,2013-05-25 01:51:00,
2013-05-24 20:56:00,49.6,36.3,30.14,ENE,68,0.0,0.0,60,0.00,,,0.00,WUHU216HW,2013-05-25 01:56:00,
2013-05-24 21:01:00,49.8,36.8,30.14,East,90,0.0,2.6,61,0.00,,,0.00,WUHU216HW,2013-05-25 02:01:00,
2013-05-24 21:06:00,50.1,38.0,30.14,East,90,2.4,2.6,62,0.00,,,0.00,WUHU216HW,2013-05-25 02:06:00,
2013-05-24 21:11:00,50.1,38.0,30.14,ESE,113,0.0,2.4,63,0.00,,,0.00,WUHU216HW,2013-05-25 02:11:00,
2013-05-24 21:16:00,49.8,37.6,30.13,ESE,113,0.0,0.0,63,0.00,,,0.00,WUHU216HW,2013-05-25 02:16:00,
2013-05-24 21:21:00,49.6,37.9,30.14,East,90,0.0,0.0,64,0.00,,,0.00,WUHU216HW,2013-05-25 02:21:00,
2013-05-24 21:26:00,49.6,38.3,30.14,East,90,2.6,3.5,65,0.00,,,0.00,WUHU216HW,2013-05-25 02:26:00,
2013-05-24 21:30:00,49.2,38.5,30.14,ESE,118,1.3,3.5,66,0.00,,,0.00,WUHU216HW,2013-05-25 02:30:00,
2013-05-24 21:36:00,49.1,38.5,30.14,SE,135,2.9,2.9,67,0.00,,,0.00,WUHU216HW,2013-05-25 02:36:00,
2013-05-24 21:41:00,49.1,39.3,30.14,ESE,113,1.5,4.9,69,0.00,,,0.00,WUHU216HW,2013-05-25 02:41:00,
2013-05-24 21:46:00,48.9,39.1,30.15,SE,135,0.0,4.9,69,0.00,,,0.00,WUHU216HW,2013-05-25 02:46:00,
2013-05-24 21:50:00,48.9,39.3,30.15,SE,135,2.9,6.0,70,0.00,,,0.00,WUHU216HW,2013-05-25 02:50:00,